Terminal Aerodrome Forecast
Issued by NWS Duluth, MN

Home | Current Version | Previous Version | Text Only | Print | Product List | Glossary On
Versions: 1 2 3 4 5 6 7 8 9 10 11 12 13 14 15 16 17 18 19 20 21 22 23 24 25 26 27 28 29 30 31
711
FTUS43 KDLH 232207 AAB
TAFDLH
TAF AMD
KDLH 232207Z 2322/2418 11012KT P6SM FEW017 BKN060
     FM240200 05006KT P6SM BKN035
     FM240600 VRB03KT 4SM BR BKN015
     FM240700 VRB03KT 3SM BR BKN008
     FM241400 07007KT P6SM SCT008=

USA.gov is the U.S. government's official web portal to all federal, state and local government web resources and services.